sensor_id;sensor_type;location;lat;lon;timestamp;P1;durP1;ratioP1;P2;durP2;ratioP2
5349;SDS011;2697;42.144;24.794;2024-03-08T00:01:47;45.37;;;23.13;;
5349;SDS011;2697;42.144;24.794;2024-03-08T00:04:13;47.37;;;24.50;;
5349;SDS011;2697;42.144;24.794;2024-03-08T00:06:38;58.90;;;22.73;;
5349;SDS011;2697;42.144;24.794;2024-03-08T00:09:04;54.03;;;24.13;;
5349;SDS011;2697;42.144;24.794;2024-03-08T00:11:32;58.43;;;23.93;;
5349;SDS011;2697;42.144;24.794;2024-03-08T00:13:58;47.47;;;24.57;;
5349;SDS011;2697;42.144;24.794;2024-03-08T00:16:24;45.27;;;22.57;;
5349;SDS011;2697;42.144;24.794;2024-03-08T00:18:49;50.37;;;22.13;;
5349;SDS011;2697;42.144;24.794;2024-03-08T00:21:15;42.10;;;21.37;;
5349;SDS011;2697;42.144;24.794;2024-03-08T00:23:40;41.47;;;20.83;;
5349;SDS011;2697;42.144;24.794;2024-03-08T00:26:06;38.30;;;17.37;;
5349;SDS011;2697;42.144;24.794;2024-03-08T00:28:32;56.13;;;23.47;;
5349;SDS011;2697;42.144;24.794;2024-03-08T00:30:59;43.20;;;20.40;;
5349;SDS011;2697;42.144;24.794;2024-03-08T00:33:25;42.33;;;20.00;;
5349;SDS011;2697;42.144;24.794;2024-03-08T00:35:50;38.27;;;21.53;;
5349;SDS011;2697;42.144;24.794;2024-03-08T00:38:16;47.83;;;20.13;;
5349;SDS011;2697;42.144;24.794;2024-03-08T00:40:41;46.77;;;22.50;;
5349;SDS011;2697;42.144;24.794;2024-03-08T00:43:07;53.20;;;23.37;;
5349;SDS011;2697;42.144;24.794;2024-03-08T00:45:32;56.13;;;22.70;;
5349;SDS011;2697;42.144;24.794;2024-03-08T00:47:57;49.60;;;23.30;;
5349;SDS011;2697;42.144;24.794;2024-03-08T00:50:23;55.93;;;22.20;;
5349;SDS011;2697;42.144;24.794;2024-03-08T00:52:48;53.47;;;25.03;;
5349;SDS011;2697;42.144;24.794;2024-03-08T00:55:14;45.00;;;21.20;;
5349;SDS011;2697;42.144;24.794;2024-03-08T00:57:39;52.47;;;24.00;;
5349;SDS011;2697;42.144;24.794;2024-03-08T01:00:06;45.23;;;20.67;;
5349;SDS011;2697;42.144;24.794;2024-03-08T01:02:36;41.90;;;20.40;;
5349;SDS011;2697;42.144;24.794;2024-03-08T01:05:02;40.80;;;20.70;;
5349;SDS011;2697;42.144;24.794;2024-03-08T01:07:29;40.17;;;20.10;;
5349;SDS011;2697;42.144;24.794;2024-03-08T01:09:55;47.13;;;22.10;;
5349;SDS011;2697;42.144;24.794;2024-03-08T01:12:21;45.60;;;20.33;;
5349;SDS011;2697;42.144;24.794;2024-03-08T01:14:47;46.27;;;20.93;;
5349;SDS011;2697;42.144;24.794;2024-03-08T01:17:13;47.33;;;21.27;;
5349;SDS011;2697;42.144;24.794;2024-03-08T01:19:39;53.13;;;22.17;;
5349;SDS011;2697;42.144;24.794;2024-03-08T01:22:04;35.10;;;17.50;;
5349;SDS011;2697;42.144;24.794;2024-03-08T01:24:30;50.20;;;21.67;;
5349;SDS011;2697;42.144;24.794;2024-03-08T01:26:55;46.70;;;22.10;;
5349;SDS011;2697;42.144;24.794;2024-03-08T01:29:20;57.03;;;23.50;;
5349;SDS011;2697;42.144;24.794;2024-03-08T01:31:46;56.03;;;23.50;;
5349;SDS011;2697;42.144;24.794;2024-03-08T01:34:12;46.23;;;24.20;;
5349;SDS011;2697;42.144;24.794;2024-03-08T01:36:37;43.40;;;22.20;;
5349;SDS011;2697;42.144;24.794;2024-03-08T01:39:03;50.30;;;24.77;;
5349;SDS011;2697;42.144;24.794;2024-03-08T01:41:33;49.30;;;24.63;;
5349;SDS011;2697;42.144;24.794;2024-03-08T01:43:59;49.00;;;23.90;;
5349;SDS011;2697;42.144;24.794;2024-03-08T01:46:24;50.93;;;22.17;;
5349;SDS011;2697;42.144;24.794;2024-03-08T01:48:50;50.47;;;23.60;;
5349;SDS011;2697;42.144;24.794;2024-03-08T01:51:15;47.37;;;22.60;;
5349;SDS011;2697;42.144;24.794;2024-03-08T01:53:41;50.43;;;24.53;;
5349;SDS011;2697;42.144;24.794;2024-03-08T01:56:10;60.53;;;26.37;;
5349;SDS011;2697;42.144;24.794;2024-03-08T01:58:37;41.73;;;22.70;;
5349;SDS011;2697;42.144;24.794;2024-03-08T02:01:03;47.93;;;22.97;;
5349;SDS011;2697;42.144;24.794;2024-03-08T02:03:30;49.23;;;24.93;;
5349;SDS011;2697;42.144;24.794;2024-03-08T02:05:56;56.70;;;25.93;;
5349;SDS011;2697;42.144;24.794;2024-03-08T02:08:23;48.10;;;23.47;;
5349;SDS011;2697;42.144;24.794;2024-03-08T02:10:49;48.30;;;23.60;;
5349;SDS011;2697;42.144;24.794;2024-03-08T02:13:15;40.20;;;20.93;;
5349;SDS011;2697;42.144;24.794;2024-03-08T02:15:54;41.10;;;23.03;;
5349;SDS011;2697;42.144;24.794;2024-03-08T02:18:27;49.10;;;25.27;;
5349;SDS011;2697;42.144;24.794;2024-03-08T02:23:23;43.07;;;21.50;;
5349;SDS011;2697;42.144;24.794;2024-03-08T02:25:50;40.87;;;21.17;;
5349;SDS011;2697;42.144;24.794;2024-03-08T02:28:16;46.37;;;22.00;;
5349;SDS011;2697;42.144;24.794;2024-03-08T02:30:43;39.50;;;20.80;;
5349;SDS011;2697;42.144;24.794;2024-03-08T02:33:10;44.90;;;22.27;;
5349;SDS011;2697;42.144;24.794;2024-03-08T02:35:39;41.07;;;21.23;;
5349;SDS011;2697;42.144;24.794;2024-03-08T02:38:05;41.47;;;20.27;;
5349;SDS011;2697;42.144;24.794;2024-03-08T02:40:30;39.73;;;19.37;;
5349;SDS011;2697;42.144;24.794;2024-03-08T02:42:57;29.40;;;16.03;;
5349;SDS011;2697;42.144;24.794;2024-03-08T02:45:23;33.30;;;19.20;;
5349;SDS011;2697;42.144;24.794;2024-03-08T02:47:49;33.43;;;16.60;;
5349;SDS011;2697;42.144;24.794;2024-03-08T02:50:15;42.43;;;22.03;;
5349;SDS011;2697;42.144;24.794;2024-03-08T02:52:41;36.53;;;19.90;;
5349;SDS011;2697;42.144;24.794;2024-03-08T02:55:07;37.97;;;20.67;;
5349;SDS011;2697;42.144;24.794;2024-03-08T02:57:35;53.00;;;20.20;;
5349;SDS011;2697;42.144;24.794;2024-03-08T03:00:01;35.97;;;18.40;;
5349;SDS011;2697;42.144;24.794;2024-03-08T03:02:27;41.77;;;21.97;;
5349;SDS011;2697;42.144;24.794;2024-03-08T03:04:52;38.60;;;17.17;;
5349;SDS011;2697;42.144;24.794;2024-03-08T03:07:18;47.17;;;21.13;;
5349;SDS011;2697;42.144;24.794;2024-03-08T03:09:44;42.33;;;20.10;;
5349;SDS011;2697;42.144;24.794;2024-03-08T03:12:10;39.67;;;19.60;;
5349;SDS011;2697;42.144;24.794;2024-03-08T03:14:35;50.47;;;20.50;;
5349;SDS011;2697;42.144;24.794;2024-03-08T03:17:03;41.57;;;21.20;;
5349;SDS011;2697;42.144;24.794;2024-03-08T03:19:29;44.60;;;21.60;;
5349;SDS011;2697;42.144;24.794;2024-03-08T03:21:55;52.93;;;23.07;;
5349;SDS011;2697;42.144;24.794;2024-03-08T03:24:21;50.27;;;22.93;;
5349;SDS011;2697;42.144;24.794;2024-03-08T03:26:46;46.80;;;22.80;;
5349;SDS011;2697;42.144;24.794;2024-03-08T03:29:13;43.77;;;21.40;;
5349;SDS011;2697;42.144;24.794;2024-03-08T03:31:40;51.07;;;25.37;;
5349;SDS011;2697;42.144;24.794;2024-03-08T03:34:06;39.27;;;17.87;;
5349;SDS011;2697;42.144;24.794;2024-03-08T03:36:34;43.23;;;20.70;;
5349;SDS011;2697;42.144;24.794;2024-03-08T03:39:00;42.97;;;21.80;;
5349;SDS011;2697;42.144;24.794;2024-03-08T03:41:37;52.97;;;22.57;;
5349;SDS011;2697;42.144;24.794;2024-03-08T03:44:03;50.93;;;22.47;;
5349;SDS011;2697;42.144;24.794;2024-03-08T03:46:30;49.73;;;23.67;;
5349;SDS011;2697;42.144;24.794;2024-03-08T03:48:56;50.67;;;23.00;;
5349;SDS011;2697;42.144;24.794;2024-03-08T03:51:21;51.17;;;22.07;;
5349;SDS011;2697;42.144;24.794;2024-03-08T03:53:46;51.10;;;23.43;;
5349;SDS011;2697;42.144;24.794;2024-03-08T03:56:12;54.60;;;24.20;;
5349;SDS011;2697;42.144;24.794;2024-03-08T03:58:37;57.67;;;24.73;;
5349;SDS011;2697;42.144;24.794;2024-03-08T04:01:04;63.17;;;24.73;;
5349;SDS011;2697;42.144;24.794;2024-03-08T04:03:30;52.20;;;23.37;;
5349;SDS011;2697;42.144;24.794;2024-03-08T04:05:56;62.37;;;25.37;;
5349;SDS011;2697;42.144;24.794;2024-03-08T04:08:21;44.13;;;21.37;;
5349;SDS011;2697;42.144;24.794;2024-03-08T04:10:48;52.10;;;22.10;;
5349;SDS011;2697;42.144;24.794;2024-03-08T04:13:14;59.63;;;24.13;;
5349;SDS011;2697;42.144;24.794;2024-03-08T04:15:40;50.07;;;19.63;;
5349;SDS011;2697;42.144;24.794;2024-03-08T04:18:08;50.13;;;21.23;;
5349;SDS011;2697;42.144;24.794;2024-03-08T04:20:33;42.70;;;19.53;;
5349;SDS011;2697;42.144;24.794;2024-03-08T04:22:59;55.50;;;19.90;;
5349;SDS011;2697;42.144;24.794;2024-03-08T04:25:24;42.37;;;16.93;;
5349;SDS011;2697;42.144;24.794;2024-03-08T04:27:50;47.30;;;22.00;;
5349;SDS011;2697;42.144;24.794;2024-03-08T04:30:17;52.60;;;23.70;;
5349;SDS011;2697;42.144;24.794;2024-03-08T04:32:42;33.90;;;16.83;;
5349;SDS011;2697;42.144;24.794;2024-03-08T04:35:09;44.60;;;21.40;;
5349;SDS011;2697;42.144;24.794;2024-03-08T04:37:34;38.13;;;16.83;;
5349;SDS011;2697;42.144;24.794;2024-03-08T04:39:59;49.57;;;21.87;;
5349;SDS011;2697;42.144;24.794;2024-03-08T04:42:25;39.40;;;15.20;;
5349;SDS011;2697;42.144;24.794;2024-03-08T04:44:54;45.80;;;20.90;;
5349;SDS011;2697;42.144;24.794;2024-03-08T04:47:20;63.17;;;22.47;;
5349;SDS011;2697;42.144;24.794;2024-03-08T04:49:45;31.07;;;15.53;;
5349;SDS011;2697;42.144;24.794;2024-03-08T04:52:11;31.77;;;13.87;;
5349;SDS011;2697;42.144;24.794;2024-03-08T04:54:37;35.43;;;14.43;;
5349;SDS011;2697;42.144;24.794;2024-03-08T04:57:02;60.40;;;23.03;;
5349;SDS011;2697;42.144;24.794;2024-03-08T04:59:29;53.00;;;22.40;;
5349;SDS011;2697;42.144;24.794;2024-03-08T05:01:55;54.57;;;26.10;;
5349;SDS011;2697;42.144;24.794;2024-03-08T05:04:21;50.00;;;20.83;;
5349;SDS011;2697;42.144;24.794;2024-03-08T05:06:47;58.10;;;23.73;;
5349;SDS011;2697;42.144;24.794;2024-03-08T05:09:13;54.07;;;23.90;;
5349;SDS011;2697;42.144;24.794;2024-03-08T05:11:45;53.47;;;23.10;;
5349;SDS011;2697;42.144;24.794;2024-03-08T05:14:11;47.60;;;22.50;;
5349;SDS011;2697;42.144;24.794;2024-03-08T05:16:41;47.73;;;19.77;;
5349;SDS011;2697;42.144;24.794;2024-03-08T05:19:14;50.40;;;21.63;;
5349;SDS011;2697;42.144;24.794;2024-03-08T05:21:41;60.43;;;25.70;;
5349;SDS011;2697;42.144;24.794;2024-03-08T05:24:08;61.87;;;22.80;;
5349;SDS011;2697;42.144;24.794;2024-03-08T05:26:35;68.00;;;26.53;;
5349;SDS011;2697;42.144;24.794;2024-03-08T05:29:00;54.93;;;23.30;;
5349;SDS011;2697;42.144;24.794;2024-03-08T05:31:26;58.07;;;22.70;;
5349;SDS011;2697;42.144;24.794;2024-03-08T05:33:51;70.63;;;26.00;;
5349;SDS011;2697;42.144;24.794;2024-03-08T05:36:19;55.00;;;23.97;;
5349;SDS011;2697;42.144;24.794;2024-03-08T05:38:44;60.90;;;25.40;;
5349;SDS011;2697;42.144;24.794;2024-03-08T05:41:10;67.87;;;27.47;;
5349;SDS011;2697;42.144;24.794;2024-03-08T05:43:37;50.73;;;23.77;;
5349;SDS011;2697;42.144;24.794;2024-03-08T05:46:02;48.33;;;19.10;;
5349;SDS011;2697;42.144;24.794;2024-03-08T05:48:29;56.03;;;24.93;;
5349;SDS011;2697;42.144;24.794;2024-03-08T05:50:57;65.37;;;25.40;;
5349;SDS011;2697;42.144;24.794;2024-03-08T05:53:22;77.47;;;23.87;;
5349;SDS011;2697;42.144;24.794;2024-03-08T05:55:47;66.43;;;25.20;;
5349;SDS011;2697;42.144;24.794;2024-03-08T05:58:14;58.10;;;22.10;;
5349;SDS011;2697;42.144;24.794;2024-03-08T06:00:40;46.67;;;20.73;;
5349;SDS011;2697;42.144;24.794;2024-03-08T06:03:05;49.63;;;20.73;;
5349;SDS011;2697;42.144;24.794;2024-03-08T06:05:30;64.37;;;24.83;;
5349;SDS011;2697;42.144;24.794;2024-03-08T06:07:56;67.70;;;25.83;;
5349;SDS011;2697;42.144;24.794;2024-03-08T06:10:21;64.33;;;25.43;;
5349;SDS011;2697;42.144;24.794;2024-03-08T06:12:47;61.00;;;26.10;;
5349;SDS011;2697;42.144;24.794;2024-03-08T06:15:12;45.60;;;19.50;;
5349;SDS011;2697;42.144;24.794;2024-03-08T06:17:41;58.03;;;21.33;;
5349;SDS011;2697;42.144;24.794;2024-03-08T06:20:07;46.70;;;19.67;;
5349;SDS011;2697;42.144;24.794;2024-03-08T06:22:41;34.10;;;14.43;;
5349;SDS011;2697;42.144;24.794;2024-03-08T06:25:10;62.77;;;22.23;;
5349;SDS011;2697;42.144;24.794;2024-03-08T06:27:39;58.17;;;24.33;;
5349;SDS011;2697;42.144;24.794;2024-03-08T06:30:09;78.10;;;27.37;;
5349;SDS011;2697;42.144;24.794;2024-03-08T06:32:38;41.13;;;18.60;;
5349;SDS011;2697;42.144;24.794;2024-03-08T06:35:04;53.50;;;23.57;;
5349;SDS011;2697;42.144;24.794;2024-03-08T06:37:34;64.93;;;29.57;;
5349;SDS011;2697;42.144;24.794;2024-03-08T06:40:00;75.73;;;28.87;;
5349;SDS011;2697;42.144;24.794;2024-03-08T06:42:26;89.37;;;27.73;;
5349;SDS011;2697;42.144;24.794;2024-03-08T06:44:53;67.63;;;28.80;;
5349;SDS011;2697;42.144;24.794;2024-03-08T06:47:20;68.93;;;28.73;;
5349;SDS011;2697;42.144;24.794;2024-03-08T06:49:46;77.67;;;25.83;;
5349;SDS011;2697;42.144;24.794;2024-03-08T06:52:11;63.10;;;26.73;;
5349;SDS011;2697;42.144;24.794;2024-03-08T06:54:37;69.97;;;26.60;;
5349;SDS011;2697;42.144;24.794;2024-03-08T06:57:03;66.00;;;26.90;;
5349;SDS011;2697;42.144;24.794;2024-03-08T06:59:29;67.37;;;26.80;;
5349;SDS011;2697;42.144;24.794;2024-03-08T07:01:54;58.60;;;27.80;;
5349;SDS011;2697;42.144;24.794;2024-03-08T07:04:20;65.23;;;29.20;;
5349;SDS011;2697;42.144;24.794;2024-03-08T07:06:47;69.47;;;29.60;;
5349;SDS011;2697;42.144;24.794;2024-03-08T07:09:15;68.60;;;29.27;;
5349;SDS011;2697;42.144;24.794;2024-03-08T07:11:41;74.47;;;30.53;;
5349;SDS011;2697;42.144;24.794;2024-03-08T07:14:07;62.13;;;26.70;;
5349;SDS011;2697;42.144;24.794;2024-03-08T07:16:34;62.33;;;29.03;;
5349;SDS011;2697;42.144;24.794;2024-03-08T07:19:04;65.73;;;25.00;;
5349;SDS011;2697;42.144;24.794;2024-03-08T07:21:30;67.03;;;27.93;;
5349;SDS011;2697;42.144;24.794;2024-03-08T07:23:56;73.30;;;29.90;;
5349;SDS011;2697;42.144;24.794;2024-03-08T07:26:25;63.63;;;27.83;;
5349;SDS011;2697;42.144;24.794;2024-03-08T07:28:50;63.47;;;29.17;;
5349;SDS011;2697;42.144;24.794;2024-03-08T07:31:16;69.73;;;30.27;;
5349;SDS011;2697;42.144;24.794;2024-03-08T07:33:48;73.50;;;31.57;;
5349;SDS011;2697;42.144;24.794;2024-03-08T07:36:15;57.90;;;28.67;;
5349;SDS011;2697;42.144;24.794;2024-03-08T07:38:40;55.97;;;26.10;;
5349;SDS011;2697;42.144;24.794;2024-03-08T07:41:06;62.77;;;29.27;;
5349;SDS011;2697;42.144;24.794;2024-03-08T07:43:31;65.23;;;28.67;;
5349;SDS011;2697;42.144;24.794;2024-03-08T07:45:57;63.57;;;24.20;;
5349;SDS011;2697;42.144;24.794;2024-03-08T07:48:23;51.93;;;27.70;;
5349;SDS011;2697;42.144;24.794;2024-03-08T07:50:48;47.10;;;25.60;;
5349;SDS011;2697;42.144;24.794;2024-03-08T07:53:15;54.63;;;26.93;;
5349;SDS011;2697;42.144;24.794;2024-03-08T07:55:40;58.07;;;26.17;;
5349;SDS011;2697;42.144;24.794;2024-03-08T07:58:07;44.80;;;23.43;;
5349;SDS011;2697;42.144;24.794;2024-03-08T08:00:35;44.43;;;20.73;;
5349;SDS011;2697;42.144;24.794;2024-03-08T08:03:01;48.47;;;22.90;;
5349;SDS011;2697;42.144;24.794;2024-03-08T08:05:27;51.07;;;25.00;;
5349;SDS011;2697;42.144;24.794;2024-03-08T08:07:53;46.67;;;22.57;;
5349;SDS011;2697;42.144;24.794;2024-03-08T08:10:18;42.97;;;21.47;;
5349;SDS011;2697;42.144;24.794;2024-03-08T08:12:49;40.20;;;22.20;;
5349;SDS011;2697;42.144;24.794;2024-03-08T08:15:14;42.40;;;21.17;;
5349;SDS011;2697;42.144;24.794;2024-03-08T08:17:41;39.83;;;20.83;;
5349;SDS011;2697;42.144;24.794;2024-03-08T08:20:07;59.97;;;21.90;;
5349;SDS011;2697;42.144;24.794;2024-03-08T08:22:34;41.63;;;19.70;;
5349;SDS011;2697;42.144;24.794;2024-03-08T08:24:59;49.57;;;22.70;;
5349;SDS011;2697;42.144;24.794;2024-03-08T08:27:25;49.33;;;21.33;;
5349;SDS011;2697;42.144;24.794;2024-03-08T08:29:51;46.57;;;22.00;;
5349;SDS011;2697;42.144;24.794;2024-03-08T08:32:16;47.87;;;20.33;;
5349;SDS011;2697;42.144;24.794;2024-03-08T08:34:43;37.73;;;20.40;;
5349;SDS011;2697;42.144;24.794;2024-03-08T08:37:09;46.10;;;21.60;;
5349;SDS011;2697;42.144;24.794;2024-03-08T08:39:35;50.33;;;21.30;;
5349;SDS011;2697;42.144;24.794;2024-03-08T08:42:00;52.90;;;20.33;;
5349;SDS011;2697;42.144;24.794;2024-03-08T08:44:27;36.37;;;18.67;;
5349;SDS011;2697;42.144;24.794;2024-03-08T08:46:53;35.83;;;18.23;;
5349;SDS011;2697;42.144;24.794;2024-03-08T08:49:18;41.60;;;19.50;;
5349;SDS011;2697;42.144;24.794;2024-03-08T08:51:51;49.80;;;18.50;;
5349;SDS011;2697;42.144;24.794;2024-03-08T08:54:17;41.30;;;19.87;;
5349;SDS011;2697;42.144;24.794;2024-03-08T08:56:45;36.90;;;19.17;;
5349;SDS011;2697;42.144;24.794;2024-03-08T08:59:12;39.20;;;21.20;;
5349;SDS011;2697;42.144;24.794;2024-03-08T09:01:41;41.47;;;20.70;;
5349;SDS011;2697;42.144;24.794;2024-03-08T09:04:07;50.37;;;20.83;;
5349;SDS011;2697;42.144;24.794;2024-03-08T09:06:33;49.57;;;21.97;;
5349;SDS011;2697;42.144;24.794;2024-03-08T09:08:58;37.23;;;19.77;;
5349;SDS011;2697;42.144;24.794;2024-03-08T09:11:24;49.83;;;19.60;;
5349;SDS011;2697;42.144;24.794;2024-03-08T09:13:50;40.10;;;22.13;;
5349;SDS011;2697;42.144;24.794;2024-03-08T09:16:16;47.33;;;21.53;;
5349;SDS011;2697;42.144;24.794;2024-03-08T09:18:42;43.90;;;20.20;;
5349;SDS011;2697;42.144;24.794;2024-03-08T09:21:07;37.87;;;18.67;;
5349;SDS011;2697;42.144;24.794;2024-03-08T09:23:35;26.17;;;13.00;;
5349;SDS011;2697;42.144;24.794;2024-03-08T09:26:01;28.57;;;15.10;;
5349;SDS011;2697;42.144;24.794;2024-03-08T09:28:28;31.73;;;16.13;;
5349;SDS011;2697;42.144;24.794;2024-03-08T09:30:54;29.03;;;16.27;;
5349;SDS011;2697;42.144;24.794;2024-03-08T09:33:20;30.30;;;14.80;;
5349;SDS011;2697;42.144;24.794;2024-03-08T09:35:46;39.97;;;16.43;;
5349;SDS011;2697;42.144;24.794;2024-03-08T09:38:13;36.80;;;17.80;;
5349;SDS011;2697;42.144;24.794;2024-03-08T09:40:42;33.27;;;16.67;;
5349;SDS011;2697;42.144;24.794;2024-03-08T09:43:09;31.40;;;15.80;;
5349;SDS011;2697;42.144;24.794;2024-03-08T09:45:36;32.73;;;17.67;;
5349;SDS011;2697;42.144;24.794;2024-03-08T09:48:12;28.37;;;14.73;;
5349;SDS011;2697;42.144;24.794;2024-03-08T09:50:42;34.10;;;16.30;;
5349;SDS011;2697;42.144;24.794;2024-03-08T09:53:07;33.67;;;17.03;;
5349;SDS011;2697;42.144;24.794;2024-03-08T09:55:35;30.13;;;16.17;;
5349;SDS011;2697;42.144;24.794;2024-03-08T09:58:02;36.77;;;15.20;;
5349;SDS011;2697;42.144;24.794;2024-03-08T10:00:49;35.20;;;15.20;;
5349;SDS011;2697;42.144;24.794;2024-03-08T10:03:14;26.00;;;14.47;;
5349;SDS011;2697;42.144;24.794;2024-03-08T10:05:43;30.23;;;13.50;;
5349;SDS011;2697;42.144;24.794;2024-03-08T10:08:09;37.67;;;14.40;;
5349;SDS011;2697;42.144;24.794;2024-03-08T10:10:36;29.43;;;16.20;;
5349;SDS011;2697;42.144;24.794;2024-03-08T10:13:05;54.87;;;17.70;;
5349;SDS011;2697;42.144;24.794;2024-03-08T10:15:31;26.73;;;10.67;;
5349;SDS011;2697;42.144;24.794;2024-03-08T10:17:58;27.60;;;12.73;;
5349;SDS011;2697;42.144;24.794;2024-03-08T10:20:24;32.90;;;15.50;;
5349;SDS011;2697;42.144;24.794;2024-03-08T10:22:49;27.67;;;14.53;;
5349;SDS011;2697;42.144;24.794;2024-03-08T10:25:16;24.47;;;13.03;;
5349;SDS011;2697;42.144;24.794;2024-03-08T10:27:42;22.70;;;12.00;;
5349;SDS011;2697;42.144;24.794;2024-03-08T10:30:13;26.10;;;14.27;;
5349;SDS011;2697;42.144;24.794;2024-03-08T10:32:41;25.13;;;15.23;;
5349;SDS011;2697;42.144;24.794;2024-03-08T10:35:09;25.20;;;12.93;;
5349;SDS011;2697;42.144;24.794;2024-03-08T10:40:12;21.57;;;11.10;;
5349;SDS011;2697;42.144;24.794;2024-03-08T10:43:01;20.77;;;13.03;;
5349;SDS011;2697;42.144;24.794;2024-03-08T10:50:41;31.70;;;14.30;;
5349;SDS011;2697;42.144;24.794;2024-03-08T10:53:11;24.10;;;11.40;;
5349;SDS011;2697;42.144;24.794;2024-03-08T10:55:39;34.03;;;12.93;;
5349;SDS011;2697;42.144;24.794;2024-03-08T10:58:08;28.70;;;13.53;;
5349;SDS011;2697;42.144;24.794;2024-03-08T11:00:34;25.30;;;12.50;;
5349;SDS011;2697;42.144;24.794;2024-03-08T11:03:00;30.00;;;13.53;;
5349;SDS011;2697;42.144;24.794;2024-03-08T11:05:36;23.43;;;13.70;;
5349;SDS011;2697;42.144;24.794;2024-03-08T11:10:46;27.67;;;12.20;;
5349;SDS011;2697;42.144;24.794;2024-03-08T11:15:59;27.53;;;13.83;;
5349;SDS011;2697;42.144;24.794;2024-03-08T11:18:26;26.87;;;13.00;;
5349;SDS011;2697;42.144;24.794;2024-03-08T11:20:53;34.80;;;15.30;;
5349;SDS011;2697;42.144;24.794;2024-03-08T11:23:22;35.10;;;16.77;;
5349;SDS011;2697;42.144;24.794;2024-03-08T11:25:48;32.13;;;13.30;;
5349;SDS011;2697;42.144;24.794;2024-03-08T11:28:21;31.70;;;14.73;;
5349;SDS011;2697;42.144;24.794;2024-03-08T11:33:24;25.80;;;13.20;;
5349;SDS011;2697;42.144;24.794;2024-03-08T11:35:51;29.30;;;14.90;;
5349;SDS011;2697;42.144;24.794;2024-03-08T11:38:17;25.10;;;13.57;;
5349;SDS011;2697;42.144;24.794;2024-03-08T11:40:46;22.73;;;12.73;;
5349;SDS011;2697;42.144;24.794;2024-03-08T11:43:15;31.50;;;13.70;;
5349;SDS011;2697;42.144;24.794;2024-03-08T11:45:41;24.20;;;12.03;;
5349;SDS011;2697;42.144;24.794;2024-03-08T11:48:07;23.20;;;11.60;;
5349;SDS011;2697;42.144;24.794;2024-03-08T11:50:32;25.47;;;11.00;;
5349;SDS011;2697;42.144;24.794;2024-03-08T11:53:01;25.60;;;12.30;;
5349;SDS011;2697;42.144;24.794;2024-03-08T11:55:28;27.10;;;11.60;;
5349;SDS011;2697;42.144;24.794;2024-03-08T11:58:01;28.80;;;11.00;;
5349;SDS011;2697;42.144;24.794;2024-03-08T12:00:27;17.23;;;9.00;;
5349;SDS011;2697;42.144;24.794;2024-03-08T12:03:03;22.40;;;12.10;;
5349;SDS011;2697;42.144;24.794;2024-03-08T12:05:35;17.90;;;7.50;;
5349;SDS011;2697;42.144;24.794;2024-03-08T12:08:01;15.70;;;5.53;;
5349;SDS011;2697;42.144;24.794;2024-03-08T12:10:27;33.73;;;13.30;;
5349;SDS011;2697;42.144;24.794;2024-03-08T12:12:53;26.40;;;12.93;;
5349;SDS011;2697;42.144;24.794;2024-03-08T12:15:24;23.53;;;9.53;;
5349;SDS011;2697;42.144;24.794;2024-03-08T12:17:52;26.30;;;11.87;;
5349;SDS011;2697;42.144;24.794;2024-03-08T12:22:47;18.20;;;8.73;;
5349;SDS011;2697;42.144;24.794;2024-03-08T12:25:14;22.60;;;10.53;;
5349;SDS011;2697;42.144;24.794;2024-03-08T12:27:41;18.63;;;6.80;;
5349;SDS011;2697;42.144;24.794;2024-03-08T12:30:20;25.23;;;11.27;;
5349;SDS011;2697;42.144;24.794;2024-03-08T12:32:59;20.23;;;8.07;;
5349;SDS011;2697;42.144;24.794;2024-03-08T12:35:28;15.70;;;8.47;;
5349;SDS011;2697;42.144;24.794;2024-03-08T12:37:56;19.03;;;9.30;;
5349;SDS011;2697;42.144;24.794;2024-03-08T12:40:26;11.50;;;6.93;;
5349;SDS011;2697;42.144;24.794;2024-03-08T12:42:53;22.10;;;9.80;;
5349;SDS011;2697;42.144;24.794;2024-03-08T12:45:20;17.63;;;9.83;;
5349;SDS011;2697;42.144;24.794;2024-03-08T12:47:47;17.67;;;8.47;;
5349;SDS011;2697;42.144;24.794;2024-03-08T12:50:12;15.47;;;7.77;;
5349;SDS011;2697;42.144;24.794;2024-03-08T12:52:38;11.77;;;6.73;;
5349;SDS011;2697;42.144;24.794;2024-03-08T12:55:03;8.50;;;5.90;;
5349;SDS011;2697;42.144;24.794;2024-03-08T12:57:32;17.43;;;8.33;;
5349;SDS011;2697;42.144;24.794;2024-03-08T12:59:59;11.10;;;6.10;;
5349;SDS011;2697;42.144;24.794;2024-03-08T13:02:25;14.40;;;8.23;;
5349;SDS011;2697;42.144;24.794;2024-03-08T13:04:51;16.00;;;6.77;;
5349;SDS011;2697;42.144;24.794;2024-03-08T13:07:22;12.07;;;7.30;;
5349;SDS011;2697;42.144;24.794;2024-03-08T13:09:50;17.30;;;7.10;;
5349;SDS011;2697;42.144;24.794;2024-03-08T13:12:20;16.63;;;7.27;;
5349;SDS011;2697;42.144;24.794;2024-03-08T13:14:48;14.27;;;8.53;;
5349;SDS011;2697;42.144;24.794;2024-03-08T13:17:14;10.30;;;5.90;;
5349;SDS011;2697;42.144;24.794;2024-03-08T13:19:40;9.83;;;5.23;;
5349;SDS011;2697;42.144;24.794;2024-03-08T13:22:07;20.93;;;6.20;;
5349;SDS011;2697;42.144;24.794;2024-03-08T13:24:37;14.43;;;7.30;;
5349;SDS011;2697;42.144;24.794;2024-03-08T13:27:05;13.73;;;7.57;;
5349;SDS011;2697;42.144;24.794;2024-03-08T13:29:41;15.23;;;6.97;;
5349;SDS011;2697;42.144;24.794;2024-03-08T13:32:08;5.40;;;3.83;;
5349;SDS011;2697;42.144;24.794;2024-03-08T13:34:36;8.53;;;4.60;;
5349;SDS011;2697;42.144;24.794;2024-03-08T13:37:02;13.13;;;5.43;;
5349;SDS011;2697;42.144;24.794;2024-03-08T13:39:30;15.03;;;7.00;;
5349;SDS011;2697;42.144;24.794;2024-03-08T13:42:05;17.07;;;7.17;;
5349;SDS011;2697;42.144;24.794;2024-03-08T13:44:44;15.10;;;6.90;;
5349;SDS011;2697;42.144;24.794;2024-03-08T13:47:13;10.53;;;6.10;;
5349;SDS011;2697;42.144;24.794;2024-03-08T13:49:39;11.57;;;5.67;;
5349;SDS011;2697;42.144;24.794;2024-03-08T13:52:05;4.73;;;3.83;;
5349;SDS011;2697;42.144;24.794;2024-03-08T13:54:33;21.13;;;5.87;;
5349;SDS011;2697;42.144;24.794;2024-03-08T13:57:00;5.93;;;4.10;;
5349;SDS011;2697;42.144;24.794;2024-03-08T13:59:25;13.90;;;8.47;;
5349;SDS011;2697;42.144;24.794;2024-03-08T14:01:54;7.23;;;5.67;;
5349;SDS011;2697;42.144;24.794;2024-03-08T14:04:20;15.93;;;6.60;;
5349;SDS011;2697;42.144;24.794;2024-03-08T14:06:45;11.10;;;6.77;;
5349;SDS011;2697;42.144;24.794;2024-03-08T14:09:11;12.10;;;6.00;;
5349;SDS011;2697;42.144;24.794;2024-03-08T14:11:45;9.33;;;5.70;;
5349;SDS011;2697;42.144;24.794;2024-03-08T14:14:11;9.50;;;5.80;;
5349;SDS011;2697;42.144;24.794;2024-03-08T14:16:39;8.80;;;6.90;;
5349;SDS011;2697;42.144;24.794;2024-03-08T14:19:05;9.57;;;6.53;;
5349;SDS011;2697;42.144;24.794;2024-03-08T14:21:33;9.97;;;4.60;;
5349;SDS011;2697;42.144;24.794;2024-03-08T14:23:59;10.60;;;6.13;;
5349;SDS011;2697;42.144;24.794;2024-03-08T14:26:24;20.53;;;8.20;;
5349;SDS011;2697;42.144;24.794;2024-03-08T14:28:51;18.27;;;6.70;;
5349;SDS011;2697;42.144;24.794;2024-03-08T14:31:19;12.87;;;6.90;;
5349;SDS011;2697;42.144;24.794;2024-03-08T14:33:45;14.20;;;6.77;;
5349;SDS011;2697;42.144;24.794;2024-03-08T14:36:14;50.53;;;5.10;;
5349;SDS011;2697;42.144;24.794;2024-03-08T14:38:42;14.97;;;9.00;;
5349;SDS011;2697;42.144;24.794;2024-03-08T14:41:07;20.33;;;8.50;;
5349;SDS011;2697;42.144;24.794;2024-03-08T14:43:33;21.20;;;8.93;;
5349;SDS011;2697;42.144;24.794;2024-03-08T14:45:58;17.87;;;9.97;;
5349;SDS011;2697;42.144;24.794;2024-03-08T14:48:24;15.70;;;6.20;;
5349;SDS011;2697;42.144;24.794;2024-03-08T14:50:49;12.23;;;5.37;;
5349;SDS011;2697;42.144;24.794;2024-03-08T14:53:16;22.00;;;10.50;;
5349;SDS011;2697;42.144;24.794;2024-03-08T14:55:42;18.97;;;8.23;;
5349;SDS011;2697;42.144;24.794;2024-03-08T14:58:07;12.47;;;6.70;;